createdAt,value
2022-12-08T00:01:13.882Z,1.62
2022-12-08T00:03:40.738Z,1.68
2022-12-08T00:06:31.178Z,1.57
2022-12-08T00:09:15.437Z,1.71
2022-12-08T00:11:41.267Z,1.70
2022-12-08T00:14:07.053Z,1.61
2022-12-08T00:16:32.835Z,1.69
2022-12-08T00:18:58.647Z,1.77
2022-12-08T00:21:24.428Z,1.67
2022-12-08T00:23:50.244Z,1.64
2022-12-08T00:26:16.036Z,1.61
2022-12-08T00:28:41.786Z,1.53
2022-12-08T00:31:11.403Z,1.63
2022-12-08T00:33:37.485Z,1.52
2022-12-08T00:36:12.368Z,1.48
2022-12-08T00:38:39.403Z,1.47
2022-12-08T00:41:12.670Z,1.48
2022-12-08T00:43:38.651Z,1.47
2022-12-08T00:46:04.658Z,1.48
2022-12-08T00:48:30.582Z,1.44
2022-12-08T00:50:56.501Z,1.41
2022-12-08T00:53:22.390Z,1.44
2022-12-08T00:55:48.326Z,1.48
2022-12-08T00:58:14.191Z,1.35
2022-12-08T01:00:41.560Z,1.36
2022-12-08T01:03:12.076Z,1.53
2022-12-08T01:05:38.399Z,1.34
2022-12-08T01:08:08.267Z,1.48
2022-12-08T01:10:35.873Z,1.48
2022-12-08T01:13:01.759Z,1.48
2022-12-08T01:15:27.556Z,1.34
2022-12-08T01:17:53.288Z,1.25
2022-12-08T01:20:19.084Z,1.38
2022-12-08T01:22:44.900Z,1.32
2022-12-08T01:25:10.706Z,1.28
2022-12-08T01:27:36.555Z,1.23
2022-12-08T01:30:03.245Z,1.27
2022-12-08T01:32:29.250Z,1.21
2022-12-08T01:34:55.096Z,1.29
2022-12-08T01:37:20.908Z,1.17
2022-12-08T01:39:46.763Z,1.29
2022-12-08T01:42:22.881Z,1.30
2022-12-08T01:44:58.653Z,1.17
2022-12-08T01:47:30.203Z,1.15
2022-12-08T01:49:56.057Z,1.22
2022-12-08T01:52:34.977Z,1.19
2022-12-08T01:55:26.790Z,1.19
2022-12-08T01:57:58.035Z,1.31
2022-12-08T02:00:24.042Z,1.24
2022-12-08T02:02:57.450Z,1.27
2022-12-08T02:05:32.681Z,1.19
2022-12-08T02:08:01.063Z,1.07
2022-12-08T02:10:29.628Z,1.17
2022-12-08T02:12:57.927Z,1.18
2022-12-08T02:15:38.146Z,1.29
2022-12-08T02:18:39.055Z,1.20
2022-12-08T02:21:48.074Z,1.18
2022-12-08T02:24:44.447Z,1.11
2022-12-08T02:27:22.387Z,1.30
2022-12-08T02:30:03.116Z,1.37
2022-12-08T02:32:41.406Z,1.19
2022-12-08T02:35:35.804Z,1.28
2022-12-08T02:38:15.027Z,1.17
2022-12-08T02:41:21.238Z,1.18
2022-12-08T02:43:51.830Z,1.28
2022-12-08T02:46:25.548Z,1.26
2022-12-08T02:48:52.193Z,1.19
2022-12-08T02:51:18.926Z,1.29
2022-12-08T02:53:45.872Z,1.32
2022-12-08T02:56:53.987Z,1.34
2022-12-08T02:59:50.566Z,1.35
2022-12-08T03:02:33.348Z,1.24
2022-12-08T03:05:36.061Z,1.24
2022-12-08T03:08:43.826Z,1.40
2022-12-08T03:11:32.855Z,1.38
2022-12-08T03:14:01.343Z,1.30
2022-12-08T03:16:29.622Z,1.21
2022-12-08T03:19:02.591Z,1.15
2022-12-08T03:21:33.137Z,1.26
2022-12-08T03:24:01.456Z,1.26
2022-12-08T03:26:38.781Z,1.25
2022-12-08T03:29:04.971Z,1.30
2022-12-08T03:31:34.177Z,1.30
2022-12-08T03:34:02.069Z,1.32
2022-12-08T03:36:28.224Z,1.37
2022-12-08T03:38:54.285Z,1.27
2022-12-08T03:41:21.653Z,1.19
2022-12-08T03:43:58.606Z,1.20
2022-12-08T03:48:52.928Z,1.21
2022-12-08T03:51:18.883Z,1.22
2022-12-08T03:53:45.455Z,1.13
2022-12-08T03:56:22.657Z,1.20
2022-12-08T03:58:49.434Z,1.16
2022-12-08T04:01:16.052Z,1.18
2022-12-08T04:03:41.787Z,1.19
2022-12-08T04:06:07.839Z,1.23
2022-12-08T04:08:34.121Z,1.19
2022-12-08T04:11:00.060Z,1.05
2022-12-08T04:13:25.845Z,1.17
2022-12-08T04:15:51.685Z,1.20
2022-12-08T04:18:17.797Z,1.18
2022-12-08T04:20:44.857Z,1.27
2022-12-08T04:23:12.295Z,1.25
2022-12-08T04:25:38.805Z,1.19
2022-12-08T04:28:05.326Z,1.20
2022-12-08T04:30:32.442Z,1.25
2022-12-08T04:32:58.927Z,1.21
2022-12-08T04:35:24.929Z,1.18
2022-12-08T04:37:51.322Z,1.21
2022-12-08T04:40:17.897Z,1.23
2022-12-08T04:42:44.235Z,1.26
2022-12-08T04:45:10.405Z,1.20
2022-12-08T04:47:36.377Z,1.25
2022-12-08T04:50:09.850Z,1.22
2022-12-08T04:52:41.670Z,1.16
2022-12-08T04:55:07.981Z,1.16
2022-12-08T04:57:34.046Z,1.15
2022-12-08T04:59:59.895Z,1.15
2022-12-08T05:02:25.794Z,1.22
2022-12-08T05:04:51.648Z,1.24
2022-12-08T05:07:17.436Z,1.13
2022-12-08T05:09:44.159Z,1.18
2022-12-08T05:12:09.967Z,1.14
2022-12-08T05:14:35.835Z,1.14
2022-12-08T05:17:06.271Z,1.05
2022-12-08T05:19:35.084Z,1.04
2022-12-08T05:22:00.871Z,1.20
2022-12-08T05:24:26.719Z,1.18
2022-12-08T05:26:52.471Z,1.14
2022-12-08T05:29:18.275Z,1.12
2022-12-08T05:31:44.066Z,1.00
2022-12-08T05:34:09.896Z,1.13
2022-12-08T05:36:35.707Z,1.02
2022-12-08T05:39:01.512Z,1.07
2022-12-08T05:41:27.361Z,1.12
2022-12-08T05:43:53.161Z,1.14
2022-12-08T05:46:19.113Z,1.17
2022-12-08T05:48:44.966Z,1.10
2022-12-08T05:51:23.095Z,1.19
2022-12-08T05:53:50.753Z,1.20
2022-12-08T05:56:17.264Z,1.31
2022-12-08T05:58:43.521Z,1.21
2022-12-08T06:01:27.800Z,1.20
2022-12-08T06:03:55.107Z,1.15
2022-12-08T06:06:21.045Z,1.12
2022-12-08T06:08:47.168Z,1.14
2022-12-08T06:11:21.144Z,1.17
2022-12-08T06:13:47.801Z,1.19
2022-12-08T06:16:13.682Z,1.17
2022-12-08T06:18:39.511Z,1.20
2022-12-08T06:21:11.051Z,1.22
2022-12-08T06:23:37.494Z,1.15
2022-12-08T06:26:06.272Z,1.12
2022-12-08T06:28:32.995Z,1.16
2022-12-08T06:30:59.041Z,1.18
2022-12-08T06:33:25.974Z,1.00
2022-12-08T06:35:52.522Z,0.98
2022-12-08T06:38:18.591Z,1.00
2022-12-08T06:40:44.448Z,0.91
2022-12-08T06:43:10.244Z,0.86
2022-12-08T06:45:36.072Z,0.88
2022-12-08T06:48:02.436Z,0.87
2022-12-08T06:50:28.312Z,0.88
2022-12-08T06:53:03.068Z,0.95
2022-12-08T06:58:16.882Z,0.98
2022-12-08T07:00:43.122Z,1.01
2022-12-08T07:03:10.794Z,0.97
2022-12-08T07:05:37.555Z,0.95
2022-12-08T07:08:04.630Z,1.02
2022-12-08T07:10:30.589Z,1.07
2022-12-08T07:12:56.406Z,1.07
2022-12-08T07:15:22.192Z,1.04
2022-12-08T07:17:48.448Z,0.92
2022-12-08T07:20:14.702Z,0.92
2022-12-08T07:22:40.563Z,0.92
2022-12-08T07:25:07.207Z,1.08
2022-12-08T07:27:32.965Z,1.07
2022-12-08T07:29:58.740Z,1.02
2022-12-08T07:32:24.639Z,1.02
2022-12-08T07:34:50.420Z,1.03
2022-12-08T07:37:16.176Z,1.12
2022-12-08T07:39:42.405Z,1.17
2022-12-08T07:42:08.227Z,1.09
2022-12-08T07:44:34.030Z,1.01
2022-12-08T07:46:59.771Z,0.93
2022-12-08T07:49:25.595Z,0.97
2022-12-08T07:51:51.445Z,0.95
2022-12-08T07:54:17.266Z,1.01
2022-12-08T07:56:43.051Z,1.03
2022-12-08T07:59:08.837Z,1.09
2022-12-08T08:01:35.399Z,1.09
2022-12-08T08:04:04.511Z,1.12
2022-12-08T08:06:32.651Z,1.13
2022-12-08T08:08:58.690Z,1.00
2022-12-08T08:11:24.552Z,0.86
2022-12-08T08:13:50.917Z,0.88
2022-12-08T08:16:17.974Z,0.83
2022-12-08T08:18:47.311Z,0.88
2022-12-08T08:21:43.993Z,0.79
2022-12-08T08:23:58.902Z,0.61
2022-12-08T08:26:24.758Z,0.59
2022-12-08T08:28:50.666Z,0.64
2022-12-08T08:31:16.572Z,0.59
2022-12-08T08:33:42.480Z,0.84
2022-12-08T08:36:09.004Z,0.69
2022-12-08T08:38:38.585Z,0.66
2022-12-08T08:41:09.185Z,0.79
2022-12-08T08:43:38.318Z,0.71
2022-12-08T08:46:06.191Z,0.74
2022-12-08T08:48:32.669Z,0.67
2022-12-08T08:51:07.580Z,0.60
2022-12-08T08:53:33.406Z,0.58
2022-12-08T08:56:00.211Z,0.68
2022-12-08T08:58:28.316Z,0.74
2022-12-08T09:00:54.206Z,0.67
2022-12-08T09:03:20.029Z,0.75
2022-12-08T09:05:45.874Z,0.77
2022-12-08T09:08:11.853Z,0.84
2022-12-08T09:10:37.781Z,0.84
2022-12-08T09:13:03.583Z,0.82
2022-12-08T09:15:29.448Z,0.83
2022-12-08T09:17:55.276Z,0.87
2022-12-08T09:20:21.151Z,0.84
2022-12-08T09:22:47.010Z,0.81
2022-12-08T09:25:13.210Z,0.78
2022-12-08T09:27:39.037Z,0.73
2022-12-08T09:30:05.854Z,0.69
2022-12-08T09:32:31.834Z,0.71
2022-12-08T09:34:57.625Z,0.70
2022-12-08T09:37:23.459Z,0.73
2022-12-08T09:39:49.264Z,0.69
2022-12-08T09:42:27.070Z,0.66
2022-12-08T09:45:00.660Z,0.65
2022-12-08T09:47:36.130Z,0.65
2022-12-08T09:50:17.320Z,0.65
2022-12-08T09:53:17.190Z,0.63
2022-12-08T09:55:51.450Z,0.47
2022-12-08T09:58:51.146Z,0.67
2022-12-08T10:01:18.992Z,0.73
2022-12-08T10:03:46.334Z,0.78
2022-12-08T10:06:21.231Z,0.71
2022-12-08T10:09:12.809Z,0.69
2022-12-08T10:11:51.202Z,0.71
2022-12-08T10:14:45.341Z,0.71
2022-12-08T10:17:15.345Z,0.78
2022-12-08T10:19:43.195Z,0.90
2022-12-08T10:22:20.005Z,0.93
2022-12-08T10:25:13.469Z,0.93
2022-12-08T10:27:39.384Z,0.89
2022-12-08T10:30:12.895Z,0.76
2022-12-08T10:32:39.153Z,0.85
2022-12-08T10:35:07.026Z,0.88
2022-12-08T10:37:33.529Z,0.73
2022-12-08T10:40:11.805Z,0.77
2022-12-08T10:42:41.686Z,0.89
2022-12-08T10:45:32.621Z,0.87
2022-12-08T10:48:15.356Z,0.85
2022-12-08T10:50:41.061Z,0.85
2022-12-08T10:53:07.277Z,1.01
2022-12-08T10:55:51.351Z,0.93
2022-12-08T10:58:26.975Z,0.86
2022-12-08T11:01:14.091Z,1.01
2022-12-08T11:03:50.326Z,0.80
2022-12-08T11:06:25.212Z,0.83
2022-12-08T11:08:54.336Z,0.93
2022-12-08T11:11:29.099Z,0.98
2022-12-08T11:13:55.552Z,1.05
2022-12-08T11:16:22.604Z,0.90
2022-12-08T11:18:56.093Z,0.90
2022-12-08T11:21:34.005Z,1.07
2022-12-08T11:24:18.389Z,1.00
2022-12-08T11:26:59.668Z,0.97
2022-12-08T11:29:27.368Z,1.00
2022-12-08T11:31:59.092Z,0.88
2022-12-08T11:34:27.783Z,0.92
2022-12-08T11:36:55.221Z,0.72
2022-12-08T11:39:21.844Z,0.73
2022-12-08T11:41:49.202Z,0.86
2022-12-08T11:44:40.904Z,0.74
2022-12-08T11:47:22.542Z,0.74
2022-12-08T11:49:56.018Z,0.91
2022-12-08T11:52:44.599Z,0.95
2022-12-08T11:55:36.937Z,0.95
2022-12-08T11:58:20.756Z,1.03
2022-12-08T12:00:46.841Z,0.92
2022-12-08T12:03:37.971Z,1.03
2022-12-08T12:09:32.200Z,0.95
2022-12-08T12:12:16.817Z,0.99
2022-12-08T12:15:18.829Z,0.95
2022-12-08T12:17:50.485Z,0.87
2022-12-08T12:20:27.193Z,1.03
2022-12-08T12:23:07.486Z,1.09
2022-12-08T12:25:35.579Z,0.99
2022-12-08T12:28:08.664Z,0.95
2022-12-08T12:31:01.219Z,1.11
2022-12-08T12:33:30.067Z,0.86
2022-12-08T12:36:01.258Z,0.99
2022-12-08T12:38:52.432Z,0.98
2022-12-08T12:41:28.328Z,1.00
2022-12-08T12:44:24.359Z,0.91
2022-12-08T12:46:50.051Z,1.02
2022-12-08T12:49:43.049Z,1.20
2022-12-08T12:52:14.657Z,1.17
2022-12-08T12:55:04.198Z,1.02
2022-12-08T12:57:50.429Z,0.90
2022-12-08T13:00:19.590Z,0.93
2022-12-08T13:02:50.656Z,0.94
2022-12-08T13:05:29.283Z,1.00
2022-12-08T13:08:00.037Z,0.93
2022-12-08T13:10:31.851Z,1.01
2022-12-08T13:13:15.770Z,1.00
2022-12-08T13:16:15.569Z,1.02
2022-12-08T13:18:56.937Z,1.09
2022-12-08T13:21:30.495Z,1.05
2022-12-08T13:24:13.814Z,1.02
2022-12-08T13:26:47.145Z,1.02
2022-12-08T13:29:14.891Z,1.05
2022-12-08T13:32:19.592Z,1.02
2022-12-08T13:34:55.403Z,0.91
2022-12-08T17:12:22.936Z,0.81
2022-12-08T17:14:48.741Z,0.74
2022-12-08T17:17:14.572Z,0.80
2022-12-08T17:19:40.400Z,0.80
2022-12-08T17:22:06.162Z,0.88
2022-12-08T17:24:32.047Z,0.81
2022-12-08T17:27:06.044Z,0.82
2022-12-08T17:29:33.221Z,0.85
2022-12-08T17:31:59.286Z,0.94
2022-12-08T17:34:25.355Z,1.07
2022-12-08T17:36:51.498Z,1.06
2022-12-08T17:39:18.973Z,0.95
2022-12-08T17:41:48.157Z,0.89
2022-12-08T17:44:17.002Z,0.78
2022-12-08T17:46:47.676Z,0.78
2022-12-08T17:49:20.553Z,0.75
2022-12-08T17:51:48.943Z,0.67
2022-12-08T17:54:18.909Z,0.72
2022-12-08T17:56:45.281Z,0.72
2022-12-08T17:59:12.423Z,0.67
2022-12-08T18:01:39.299Z,0.66
2022-12-08T18:04:06.766Z,0.71
2022-12-08T18:06:33.090Z,0.61
2022-12-08T18:09:00.254Z,0.69
2022-12-08T18:11:27.759Z,0.64
2022-12-08T18:13:55.120Z,0.79
2022-12-08T18:16:24.158Z,0.77
2022-12-08T18:18:50.518Z,0.85
2022-12-08T18:21:23.002Z,0.96
2022-12-08T18:23:49.946Z,0.91
2022-12-08T18:26:16.232Z,0.85
2022-12-08T18:28:42.286Z,0.77
2022-12-08T18:31:13.407Z,0.72
2022-12-08T18:33:41.017Z,0.76
2022-12-08T18:36:28.144Z,0.74
2022-12-08T18:38:55.031Z,0.77
2022-12-08T18:41:25.085Z,0.69
2022-12-08T18:43:56.388Z,0.61
2022-12-08T18:46:23.381Z,0.75
2022-12-08T18:48:50.553Z,0.66
2022-12-08T18:51:22.583Z,0.65
2022-12-08T18:53:49.424Z,0.61
2022-12-08T18:56:30.478Z,0.71
2022-12-08T18:59:02.833Z,0.64
2022-12-08T19:01:30.357Z,0.70
2022-12-08T19:04:26.792Z,0.75
2022-12-08T19:06:45.302Z,0.72
2022-12-08T19:09:12.203Z,0.71
2022-12-08T19:11:38.429Z,0.85
2022-12-08T19:14:04.701Z,0.72
2022-12-08T19:16:30.726Z,0.72
2022-12-08T19:18:56.672Z,0.55
2022-12-08T19:21:23.871Z,0.70
2022-12-08T19:23:51.936Z,0.67
2022-12-08T19:26:19.068Z,0.71
2022-12-08T19:28:44.974Z,0.68
2022-12-08T19:31:11.004Z,0.62
2022-12-08T19:33:38.096Z,0.62
2022-12-08T19:36:09.989Z,0.58
2022-12-08T19:38:55.837Z,0.61
2022-12-08T19:41:41.299Z,0.67
2022-12-08T19:44:15.337Z,0.66
2022-12-08T19:46:41.352Z,0.70
2022-12-08T19:49:07.277Z,0.62
2022-12-08T19:51:33.539Z,0.66
2022-12-08T19:53:59.614Z,0.67
2022-12-08T19:56:25.402Z,0.69
2022-12-08T19:58:51.408Z,0.57
2022-12-08T20:01:17.407Z,0.66
2022-12-08T20:03:43.529Z,0.75
2022-12-08T20:06:15.140Z,0.66
2022-12-08T20:08:43.759Z,0.77
2022-12-08T20:11:13.519Z,0.62
2022-12-08T20:13:44.500Z,0.78
2022-12-08T20:16:11.544Z,0.66
2022-12-08T20:18:39.123Z,0.65
2022-12-08T20:21:05.709Z,0.56
2022-12-08T20:23:32.336Z,0.67
2022-12-08T20:25:58.718Z,0.65
2022-12-08T20:28:24.643Z,0.65
2022-12-08T20:30:50.945Z,0.65
2022-12-08T20:33:18.549Z,0.51
2022-12-08T20:35:47.248Z,0.62
2022-12-08T20:38:13.234Z,0.49
2022-12-08T20:40:43.697Z,0.45
2022-12-08T20:43:09.679Z,0.47
2022-12-08T20:45:35.706Z,0.46
2022-12-08T20:48:01.617Z,0.48
2022-12-08T20:50:27.923Z,0.63
2022-12-08T20:52:53.757Z,0.54
2022-12-08T20:55:19.648Z,0.49
2022-12-08T20:57:45.572Z,0.45
2022-12-08T21:00:12.287Z,0.36
2022-12-08T21:02:43.311Z,0.46
2022-12-08T21:05:13.229Z,0.42
2022-12-08T21:07:39.174Z,0.47
2022-12-08T21:10:06.357Z,0.53
2022-12-08T21:12:32.821Z,0.54
2022-12-08T21:14:59.024Z,0.45
2022-12-08T21:17:25.422Z,0.53
2022-12-08T21:19:51.680Z,0.50
2022-12-08T21:22:17.869Z,0.56
2022-12-08T21:24:43.870Z,0.55
2022-12-08T21:27:09.887Z,0.55
2022-12-08T21:29:35.828Z,0.50
2022-12-08T21:32:01.751Z,0.49
2022-12-08T21:34:31.124Z,0.48
2022-12-08T21:36:57.814Z,0.44
2022-12-08T21:39:23.764Z,0.39
2022-12-08T21:42:08.291Z,0.51
2022-12-08T21:44:36.943Z,0.39
2022-12-08T21:47:04.020Z,0.37
2022-12-08T21:49:29.903Z,0.33
2022-12-08T21:51:55.958Z,0.37
2022-12-08T21:54:21.810Z,0.44
2022-12-08T21:56:49.079Z,0.47
2022-12-08T21:59:16.100Z,0.32
2022-12-08T22:01:45.304Z,0.34
2022-12-08T22:04:15.077Z,0.25
2022-12-08T22:06:41.232Z,0.32
2022-12-08T22:09:09.666Z,0.39
2022-12-08T22:11:35.745Z,0.37
2022-12-08T22:14:01.632Z,0.41
2022-12-08T22:16:27.640Z,0.39
2022-12-08T22:18:53.840Z,0.45
2022-12-08T22:21:20.419Z,0.60
2022-12-08T22:23:46.345Z,0.58
2022-12-08T22:26:12.179Z,0.64
2022-12-08T22:28:40.385Z,0.66
2022-12-08T22:31:14.333Z,0.62
2022-12-08T22:33:41.006Z,0.57
2022-12-08T22:36:13.080Z,0.61
2022-12-08T22:38:39.862Z,0.56
2022-12-08T22:41:06.605Z,0.64
2022-12-08T22:43:33.554Z,0.61
2022-12-08T22:45:59.495Z,0.62
2022-12-08T22:48:25.460Z,0.60
2022-12-08T22:50:51.395Z,0.39
2022-12-08T22:53:17.273Z,0.44
2022-12-08T22:55:44.156Z,0.33
2022-12-08T22:58:13.471Z,0.43
2022-12-08T23:00:39.475Z,0.52
2022-12-08T23:03:05.926Z,0.58
2022-12-08T23:05:37.221Z,0.54
2022-12-08T23:08:04.890Z,0.62
2022-12-08T23:10:31.748Z,0.67
2022-12-08T23:13:03.507Z,0.60
2022-12-08T23:15:30.097Z,0.60
2022-12-08T23:17:56.197Z,0.61
2022-12-08T23:20:22.096Z,0.46
2022-12-08T23:22:48.059Z,0.42
2022-12-08T23:25:13.855Z,0.43
2022-12-08T23:27:39.914Z,0.45
2022-12-08T23:30:07.620Z,0.50
2022-12-08T23:32:34.034Z,0.59
2022-12-08T23:34:59.943Z,0.51
2022-12-08T23:37:27.458Z,0.52
2022-12-08T23:39:53.315Z,0.53
2022-12-08T23:42:19.172Z,0.55
2022-12-08T23:44:45.107Z,0.60
2022-12-08T23:47:11.019Z,0.48
2022-12-08T23:49:37.092Z,0.65
2022-12-08T23:52:03.548Z,0.25
2022-12-08T23:54:29.502Z,0.48
2022-12-08T23:56:55.499Z,0.44
2022-12-08T23:59:21.322Z,0.42
